Ottawa Macdonald-Cartier International Airport
CYOW : now visible

Airfield :











YOU CAN JOIN US ON...

 
LOGIN :

Register | Disclaimer

   EN    FR    IT 

 









Legend :    VFR   Marginal VFR   IFR   Intensive IFR   Very Intensive IFR
Visi :
Ceiling :
>= 8 km
>= 3000ft
5 to 8 km
1000 to 3000 ft
1500m to 5 km
500 to 1000 ft
800 to 1500m
200 to 500 ft
< 800m
< 200 ft
Symbols :   Thunderstorms  Fog  Heavy snow  Heavy precipitations  Wind > 20 kt







- Airport Elevation : 374 ft
- IATA code : YOW


CYOW - Ottawa Macdonald-Cartier International

CURRENT METAR :
  • 261508Z 06014G19KT 8SM -RA OVC006 07/06 A2949 RMK SF8 SLP992

EXPIRED METARs :
  • 261500Z 06015KT 10SM -RA SCT010 OVC020 07/06 A2950 RMK SF3SC5 SLP994
  • 261400Z 07015G21KT 10SM -RA BKN018 OVC026 07/05 A2955 RMK SC7SC1 SLP011
  • 261300Z 07014KT 15SM -RA BKN023 OVC070 08/05 A2961 RMK SC5AC3 SLP030

TAF TAF CYOW
Valid from the 26 at 15:00 until the 27 at 12:00 UTC


261439Z 2615/2712 07015G25KT P6SM -RA SCT015 OVC025
TEMPO 2615/2616 5SM -RA BR BKN007 OVC015
FM261600 08015G25KT 5SM -RA BR OVC010
TEMPO 2616/2624 2SM RA BR BKN004 OVC008
FM270000 10015G25KT 3SM -RA BR OVC006
BECMG 2704/2706 17012G22KT
FM270800 25015G25KT 5SM -RA BR OVC010
BECMG 2709/2711 27020G30KT RMK NXT FCST BY 261800Z
CZUL FIR / North America



MET'MAP, your aeronautical weather chart ! - Copyright ORBIFLY December 2007 - Disclaimer

ORBIFLY MET'MAP TEAM :

Programming & Development : Alexandra Zaïnal
Concept & Development : Baudouin d'Aumeries
Co-Development & Prog : Marc-Olivier Méhu
Technical & hardware support : Manuel Goepfert

Contact : metmap@orbifly.com




SOURCES & CREDITS :

   NOAA       Earth
Advisory